SWA387 MMUN-KBNA
Flight info
| Callsign | SWA387 |
|---|---|
| Flight time | 2h 20m |
| Altitude | 38000 |
| Route | NOSUG UT27 PISAD L333 HOOCK DCT PEARL DCT IRUBE DCT MEI DCT KISTS CHSNE3 |
| Aircraft | B38M/M-SADE2E3GHIJ4J7P2RWZ/LB1D1 |
Departure
| Time | 2026-05-07 19:15 |
|---|---|
| Airport | Cancún International Airport (MMUN) |
Arrival
| Time | 2026-05-07 21:36 |
|---|---|
| Airport | Nashville International Airport (KBNA) |
| Time | Latitude | Longitude | Altitude | Speed | Heading |
|---|---|---|---|---|---|
| 2026-05-07 18:50 | 21.03636 | -86.86757 | 30 ft | 0 kts | 302° |
| 2026-05-07 18:57 | 21.03636 | -86.86756 | 30 ft | 1 kts | 302° |
| 2026-05-07 18:57 | 21.03623 | -86.86733 | 30 ft | 4 kts | 297° |
| 2026-05-07 18:58 | 21.03612 | -86.86707 | 30 ft | 4 kts | 288° |
| 2026-05-07 18:58 | 21.03607 | -86.86679 | 30 ft | 4 kts | 268° |
| 2026-05-07 18:58 | 21.03614 | -86.86657 | 30 ft | 3 kts | 217° |
| 2026-05-07 18:58 | 21.03616 | -86.86655 | 30 ft | 0 kts | 213° |
| 2026-05-07 19:07 | 21.03612 | -86.86658 | 30 ft | 3 kts | 213° |
| 2026-05-07 19:07 | 21.03567 | -86.86689 | 30 ft | 13 kts | 213° |
| 2026-05-07 19:07 | 21.03471 | -86.86757 | 30 ft | 18 kts | 213° |
| 2026-05-07 19:08 | 21.03379 | -86.86822 | 30 ft | 13 kts | 213° |
| 2026-05-07 19:08 | 21.03352 | -86.86900 | 30 ft | 13 kts | 297° |
| 2026-05-07 19:08 | 21.03405 | -86.86985 | 30 ft | 15 kts | 304° |
| 2026-05-07 19:08 | 21.03465 | -86.87080 | 30 ft | 16 kts | 303° |
| 2026-05-07 19:09 | 21.03529 | -86.87183 | 30 ft | 17 kts | 303° |
| 2026-05-07 19:09 | 21.03599 | -86.87296 | 31 ft | 19 kts | 304° |
| 2026-05-07 19:09 | 21.03675 | -86.87416 | 31 ft | 20 kts | 303° |
| 2026-05-07 19:09 | 21.03754 | -86.87544 | 31 ft | 22 kts | 303° |
| 2026-05-07 19:10 | 21.03840 | -86.87683 | 31 ft | 23 kts | 303° |
| 2026-05-07 19:10 | 21.03934 | -86.87830 | 31 ft | 25 kts | 304° |
| 2026-05-07 19:10 | 21.04033 | -86.87987 | 31 ft | 26 kts | 304° |
| 2026-05-07 19:10 | 21.04137 | -86.88151 | 31 ft | 27 kts | 304° |
| 2026-05-07 19:11 | 21.04245 | -86.88323 | 31 ft | 28 kts | 303° |
| 2026-05-07 19:11 | 21.04347 | -86.88488 | 31 ft | 27 kts | 304° |
| 2026-05-07 19:11 | 21.04453 | -86.88657 | 32 ft | 28 kts | 303° |
| 2026-05-07 19:11 | 21.04561 | -86.88833 | 31 ft | 27 kts | 304° |
| 2026-05-07 19:12 | 21.04641 | -86.88968 | 31 ft | 13 kts | 287° |
| 2026-05-07 19:12 | 21.04612 | -86.89026 | 31 ft | 1 kts | 218° |
| 2026-05-07 19:13 | 21.04611 | -86.89027 | 31 ft | 1 kts | 218° |
| 2026-05-07 19:14 | 21.04591 | -86.89043 | 30 ft | 6 kts | 216° |
| 2026-05-07 19:14 | 21.04540 | -86.89079 | 29 ft | 7 kts | 197° |
| 2026-05-07 19:14 | 21.04516 | -86.89059 | 29 ft | 7 kts | 124° |
| 2026-05-07 19:14 | 21.04430 | -86.88924 | 30 ft | 48 kts | 124° |
| 2026-05-07 19:15 | 21.04135 | -86.88455 | 32 ft | 102 kts | 124° |
| 2026-05-07 19:15 | 21.03653 | -86.87691 | 32 ft | 144 kts | 123° |
| 2026-05-07 19:15 | 21.03063 | -86.86733 | 223 ft | 159 kts | 123° |
| 2026-05-07 19:15 | 21.02477 | -86.85701 | 697 ft | 167 kts | 120° |
| 2026-05-07 19:16 | 21.01904 | -86.84595 | 1287 ft | 168 kts | 122° |
| 2026-05-07 19:16 | 21.01299 | -86.83520 | 1941 ft | 176 kts | 122° |
| 2026-05-07 19:16 | 21.00843 | -86.82221 | 2285 ft | 205 kts | 93° |
| 2026-05-07 19:16 | 21.01346 | -86.80701 | 2603 ft | 239 kts | 54° |
| 2026-05-07 19:17 | 21.02796 | -86.79775 | 3327 ft | 246 kts | 12° |
| 2026-05-07 19:17 | 21.04532 | -86.79895 | 3981 ft | 262 kts | 348° |
| 2026-05-07 19:17 | 21.06381 | -86.80314 | 3984 ft | 280 kts | 350° |
| 2026-05-07 19:17 | 21.08296 | -86.80677 | 3903 ft | 286 kts | 351° |
| 2026-05-07 19:18 | 21.10286 | -86.81020 | 4103 ft | 291 kts | 352° |
| 2026-05-07 19:18 | 21.12275 | -86.81351 | 4994 ft | 289 kts | 352° |
| 2026-05-07 19:18 | 21.14285 | -86.81677 | 5739 ft | 293 kts | 353° |
| 2026-05-07 19:18 | 21.16273 | -86.81992 | 6835 ft | 291 kts | 352° |
| 2026-05-07 19:19 | 21.18308 | -86.82310 | 7662 ft | 298 kts | 353° |
| 2026-05-07 19:19 | 21.20357 | -86.82628 | 8637 ft | 299 kts | 353° |
| 2026-05-07 19:19 | 21.22422 | -86.82951 | 9562 ft | 300 kts | 353° |
| 2026-05-07 19:19 | 21.24499 | -86.83277 | 10381 ft | 306 kts | 354° |
| 2026-05-07 19:20 | 21.26668 | -86.83606 | 10777 ft | 325 kts | 354° |
| 2026-05-07 19:20 | 21.28975 | -86.83948 | 11115 ft | 343 kts | 354° |
| 2026-05-07 19:20 | 21.31387 | -86.84309 | 11564 ft | 356 kts | 354° |
| 2026-05-07 19:20 | 21.33856 | -86.84686 | 12271 ft | 359 kts | 354° |
| 2026-05-07 19:21 | 21.36337 | -86.85076 | 12955 ft | 363 kts | 354° |
| 2026-05-07 19:21 | 21.38855 | -86.85471 | 13636 ft | 367 kts | 354° |
| 2026-05-07 19:21 | 21.41390 | -86.85872 | 14230 ft | 371 kts | 354° |
| 2026-05-07 19:21 | 21.43952 | -86.86276 | 14819 ft | 373 kts | 354° |
| 2026-05-07 19:22 | 21.46534 | -86.86684 | 15411 ft | 376 kts | 354° |
| 2026-05-07 19:22 | 21.49135 | -86.87094 | 15991 ft | 379 kts | 354° |
| 2026-05-07 19:22 | 21.51760 | -86.87510 | 16556 ft | 382 kts | 354° |
| 2026-05-07 19:22 | 21.54368 | -86.87924 | 17101 ft | 385 kts | 354° |
| 2026-05-07 19:23 | 21.57033 | -86.88346 | 17649 ft | 388 kts | 354° |
| 2026-05-07 19:23 | 21.59713 | -86.88771 | 18193 ft | 391 kts | 354° |
| 2026-05-07 19:23 | 21.62413 | -86.89203 | 18627 ft | 395 kts | 354° |
| 2026-05-07 19:23 | 21.65151 | -86.89636 | 19031 ft | 399 kts | 353° |
| 2026-05-07 19:24 | 21.67914 | -86.90075 | 19430 ft | 403 kts | 353° |
| 2026-05-07 19:24 | 21.70706 | -86.90519 | 19819 ft | 408 kts | 353° |
| 2026-05-07 19:24 | 21.73532 | -86.90970 | 20224 ft | 412 kts | 353° |
| 2026-05-07 19:24 | 21.76390 | -86.91425 | 20618 ft | 416 kts | 352° |
| 2026-05-07 19:25 | 21.79228 | -86.91878 | 21014 ft | 419 kts | 352° |
| 2026-05-07 19:25 | 21.82127 | -86.92340 | 21425 ft | 422 kts | 352° |
| 2026-05-07 19:25 | 21.85049 | -86.92803 | 21831 ft | 426 kts | 353° |
| 2026-05-07 19:25 | 21.88021 | -86.93058 | 22225 ft | 429 kts | 356° |
| 2026-05-07 19:26 | 21.91010 | -86.93292 | 22626 ft | 432 kts | 355° |
| 2026-05-07 19:26 | 21.94024 | -86.93543 | 23031 ft | 435 kts | 355° |
| 2026-05-07 19:26 | 21.97055 | -86.93802 | 23422 ft | 438 kts | 355° |
| 2026-05-07 19:26 | 22.00106 | -86.94065 | 23765 ft | 441 kts | 355° |
| 2026-05-07 19:27 | 22.03132 | -86.94326 | 24109 ft | 443 kts | 355° |
| 2026-05-07 19:27 | 22.06213 | -86.94592 | 24457 ft | 445 kts | 354° |
| 2026-05-07 19:27 | 22.09304 | -86.94859 | 24806 ft | 447 kts | 354° |
| 2026-05-07 19:27 | 22.12405 | -86.95127 | 25156 ft | 448 kts | 354° |
| 2026-05-07 19:28 | 22.15532 | -86.95397 | 25494 ft | 451 kts | 354° |
| 2026-05-07 19:28 | 22.18664 | -86.95668 | 25837 ft | 452 kts | 354° |
| 2026-05-07 19:28 | 22.21816 | -86.95941 | 26178 ft | 454 kts | 354° |
| 2026-05-07 19:28 | 22.24970 | -86.96214 | 26525 ft | 456 kts | 354° |
| 2026-05-07 19:29 | 22.28141 | -86.96489 | 26852 ft | 458 kts | 354° |
| 2026-05-07 19:29 | 22.31334 | -86.96765 | 27188 ft | 460 kts | 354° |
| 2026-05-07 19:29 | 22.34535 | -86.97042 | 27512 ft | 462 kts | 354° |
| 2026-05-07 19:29 | 22.37706 | -86.97318 | 27826 ft | 464 kts | 354° |
| 2026-05-07 19:30 | 22.40940 | -86.97599 | 28150 ft | 466 kts | 354° |
| 2026-05-07 19:30 | 22.44182 | -86.97880 | 28453 ft | 468 kts | 354° |
| 2026-05-07 19:30 | 22.47433 | -86.98162 | 28768 ft | 470 kts | 353° |
| 2026-05-07 19:30 | 22.50710 | -86.98447 | 29068 ft | 472 kts | 353° |
| 2026-05-07 19:31 | 22.53991 | -86.98732 | 29353 ft | 474 kts | 353° |
| 2026-05-07 19:31 | 22.57297 | -86.99020 | 29660 ft | 476 kts | 353° |
| 2026-05-07 19:31 | 22.60609 | -86.99308 | 29947 ft | 478 kts | 353° |
| 2026-05-07 19:31 | 22.63931 | -86.99597 | 30198 ft | 480 kts | 353° |
| 2026-05-07 19:32 | 22.67223 | -86.99884 | 30451 ft | 481 kts | 353° |
| 2026-05-07 19:32 | 22.70572 | -87.00176 | 30717 ft | 482 kts | 353° |
| 2026-05-07 19:32 | 22.73919 | -87.00468 | 30971 ft | 483 kts | 353° |
| 2026-05-07 19:32 | 22.77275 | -87.00761 | 31236 ft | 484 kts | 353° |
| 2026-05-07 19:33 | 22.80637 | -87.01054 | 31557 ft | 483 kts | 353° |
| 2026-05-07 19:33 | 22.83981 | -87.01346 | 31928 ft | 481 kts | 352° |
| 2026-05-07 19:33 | 22.87312 | -87.01637 | 32314 ft | 479 kts | 352° |
| 2026-05-07 19:33 | 22.90632 | -87.01927 | 32705 ft | 477 kts | 352° |
| 2026-05-07 19:34 | 22.93930 | -87.02216 | 33112 ft | 474 kts | 352° |
| 2026-05-07 19:34 | 22.97215 | -87.02503 | 33508 ft | 472 kts | 352° |
| 2026-05-07 19:34 | 23.00438 | -87.02785 | 33908 ft | 470 kts | 352° |
| 2026-05-07 19:34 | 23.03698 | -87.03070 | 34249 ft | 467 kts | 352° |
| 2026-05-07 19:35 | 23.06934 | -87.03351 | 34574 ft | 466 kts | 352° |
| 2026-05-07 19:35 | 23.10155 | -87.03631 | 34877 ft | 464 kts | 352° |
| 2026-05-07 19:35 | 23.13379 | -87.03911 | 35177 ft | 463 kts | 352° |
| 2026-05-07 19:35 | 23.16583 | -87.04189 | 35466 ft | 461 kts | 352° |
| 2026-05-07 19:36 | 23.19780 | -87.04467 | 35753 ft | 460 kts | 352° |
| 2026-05-07 19:36 | 23.22969 | -87.04744 | 36034 ft | 459 kts | 352° |
| 2026-05-07 19:36 | 23.26151 | -87.05021 | 36302 ft | 457 kts | 352° |
| 2026-05-07 19:36 | 23.29323 | -87.05297 | 36570 ft | 456 kts | 352° |
| 2026-05-07 19:37 | 23.32482 | -87.05572 | 36825 ft | 455 kts | 352° |
| 2026-05-07 19:37 | 23.35639 | -87.05847 | 37077 ft | 454 kts | 352° |
| 2026-05-07 19:37 | 23.38784 | -87.06121 | 37322 ft | 453 kts | 352° |
| 2026-05-07 19:37 | 23.41884 | -87.06391 | 37552 ft | 452 kts | 352° |
| 2026-05-07 19:38 | 23.45020 | -87.06665 | 37775 ft | 451 kts | 352° |
| 2026-05-07 19:38 | 23.48138 | -87.06937 | 37974 ft | 450 kts | 352° |
| 2026-05-07 19:38 | 23.54369 | -87.07481 | 37990 ft | 447 kts | 352° |
| 2026-05-07 19:39 | 23.60570 | -87.08024 | 37994 ft | 447 kts | 352° |
| 2026-05-07 19:39 | 23.66763 | -87.08565 | 37993 ft | 447 kts | 352° |
| 2026-05-07 19:40 | 23.72926 | -87.09105 | 37994 ft | 447 kts | 352° |
| 2026-05-07 19:40 | 23.79121 | -87.09648 | 37994 ft | 447 kts | 352° |
| 2026-05-07 19:41 | 23.85319 | -87.10192 | 37998 ft | 447 kts | 352° |
| 2026-05-07 19:41 | 23.91523 | -87.10737 | 37997 ft | 447 kts | 352° |
| 2026-05-07 19:42 | 23.97720 | -87.11282 | 38000 ft | 447 kts | 352° |
| 2026-05-07 19:42 | 24.03922 | -87.11828 | 37996 ft | 447 kts | 352° |
| 2026-05-07 19:43 | 24.10120 | -87.12374 | 38002 ft | 447 kts | 351° |
| 2026-05-07 19:43 | 24.16323 | -87.12921 | 37998 ft | 447 kts | 351° |
| 2026-05-07 19:44 | 24.22523 | -87.13468 | 38002 ft | 447 kts | 351° |
| 2026-05-07 19:44 | 24.28666 | -87.14126 | 37981 ft | 443 kts | 342° |
| 2026-05-07 19:45 | 24.34531 | -87.16168 | 37985 ft | 440 kts | 338° |
| 2026-05-07 19:45 | 24.40308 | -87.18269 | 38000 ft | 440 kts | 338° |
| 2026-05-07 19:46 | 24.46111 | -87.20416 | 38001 ft | 440 kts | 338° |
| 2026-05-07 19:46 | 24.51913 | -87.22569 | 37990 ft | 440 kts | 338° |
| 2026-05-07 19:47 | 24.57717 | -87.24724 | 37996 ft | 440 kts | 338° |
| 2026-05-07 19:47 | 24.63515 | -87.26880 | 38002 ft | 440 kts | 338° |
| 2026-05-07 19:48 | 24.69328 | -87.29043 | 37998 ft | 440 kts | 337° |
| 2026-05-07 19:48 | 24.75129 | -87.31204 | 38008 ft | 440 kts | 337° |
| 2026-05-07 19:49 | 24.80935 | -87.33368 | 37999 ft | 440 kts | 337° |
| 2026-05-07 19:49 | 24.86702 | -87.35521 | 37997 ft | 440 kts | 337° |
| 2026-05-07 19:50 | 24.92506 | -87.37689 | 37997 ft | 441 kts | 337° |
| 2026-05-07 19:50 | 24.98317 | -87.39862 | 38000 ft | 441 kts | 337° |
| 2026-05-07 19:51 | 25.04128 | -87.42039 | 38008 ft | 441 kts | 336° |
| 2026-05-07 19:51 | 25.09890 | -87.44243 | 38003 ft | 441 kts | 336° |
| 2026-05-07 19:52 | 25.15689 | -87.46462 | 38005 ft | 441 kts | 336° |
| 2026-05-07 19:52 | 25.21490 | -87.48683 | 38002 ft | 441 kts | 336° |
| 2026-05-07 19:53 | 25.27301 | -87.50910 | 38008 ft | 441 kts | 336° |
| 2026-05-07 19:53 | 25.33107 | -87.53138 | 38010 ft | 441 kts | 336° |
| 2026-05-07 19:54 | 25.38913 | -87.55368 | 38007 ft | 441 kts | 336° |
| 2026-05-07 19:54 | 25.44687 | -87.57588 | 38009 ft | 442 kts | 336° |
| 2026-05-07 19:55 | 25.50497 | -87.59824 | 38008 ft | 442 kts | 336° |
| 2026-05-07 19:55 | 25.56311 | -87.62063 | 38007 ft | 442 kts | 336° |
| 2026-05-07 19:56 | 25.62126 | -87.64306 | 38008 ft | 442 kts | 335° |
| 2026-05-07 19:56 | 25.67939 | -87.66550 | 38008 ft | 442 kts | 335° |
| 2026-05-07 19:57 | 25.73715 | -87.68782 | 38010 ft | 442 kts | 335° |
| 2026-05-07 19:57 | 25.79520 | -87.71028 | 38013 ft | 442 kts | 335° |
| 2026-05-07 19:58 | 25.85327 | -87.73276 | 38015 ft | 442 kts | 335° |
| 2026-05-07 19:58 | 25.91136 | -87.75528 | 38013 ft | 442 kts | 335° |
| 2026-05-07 19:59 | 25.96946 | -87.77783 | 38013 ft | 442 kts | 335° |
| 2026-05-07 19:59 | 26.02759 | -87.80041 | 38015 ft | 442 kts | 335° |
| 2026-05-07 20:00 | 26.08533 | -87.82286 | 38010 ft | 441 kts | 335° |
| 2026-05-07 20:00 | 26.14332 | -87.84544 | 38013 ft | 441 kts | 335° |
| 2026-05-07 20:01 | 26.20135 | -87.86805 | 38010 ft | 442 kts | 335° |
| 2026-05-07 20:01 | 26.25941 | -87.89070 | 38011 ft | 441 kts | 335° |
| 2026-05-07 20:02 | 26.31706 | -87.91321 | 38012 ft | 442 kts | 335° |
| 2026-05-07 20:02 | 26.36532 | -87.93208 | 38010 ft | 442 kts | 335° |
| 2026-05-07 20:03 | 26.42331 | -87.95477 | 38013 ft | 442 kts | 335° |
| 2026-05-07 20:03 | 26.48131 | -87.97749 | 38012 ft | 441 kts | 335° |
| 2026-05-07 20:04 | 26.53937 | -88.00025 | 38005 ft | 442 kts | 334° |
| 2026-05-07 20:04 | 26.59735 | -88.02301 | 38011 ft | 441 kts | 334° |
| 2026-05-07 20:05 | 26.65494 | -88.04564 | 38017 ft | 441 kts | 334° |
| 2026-05-07 20:05 | 26.71292 | -88.06845 | 38009 ft | 441 kts | 334° |
| 2026-05-07 20:06 | 26.77088 | -88.09128 | 38009 ft | 441 kts | 334° |
| 2026-05-07 20:06 | 26.82889 | -88.11414 | 38007 ft | 441 kts | 334° |
| 2026-05-07 20:07 | 26.88678 | -88.13699 | 38008 ft | 441 kts | 334° |
| 2026-05-07 20:07 | 26.94437 | -88.15975 | 38011 ft | 441 kts | 334° |
| 2026-05-07 20:08 | 27.00230 | -88.18266 | 38008 ft | 441 kts | 334° |
| 2026-05-07 20:08 | 27.06026 | -88.20561 | 38009 ft | 441 kts | 334° |
| 2026-05-07 20:09 | 27.11821 | -88.22857 | 38007 ft | 441 kts | 334° |
| 2026-05-07 20:10 | 27.20475 | -88.26291 | 38010 ft | 441 kts | 334° |
| 2026-05-07 20:10 | 27.26274 | -88.28595 | 38015 ft | 441 kts | 334° |
| 2026-05-07 20:11 | 27.32083 | -88.30877 | 38011 ft | 441 kts | 334° |
| 2026-05-07 20:11 | 27.37886 | -88.33149 | 38013 ft | 441 kts | 334° |
| 2026-05-07 20:12 | 27.43687 | -88.35422 | 38013 ft | 441 kts | 334° |
| 2026-05-07 20:12 | 27.49453 | -88.37685 | 38009 ft | 441 kts | 334° |
| 2026-05-07 20:13 | 27.55251 | -88.39962 | 38019 ft | 441 kts | 334° |
| 2026-05-07 20:13 | 27.61044 | -88.42240 | 38016 ft | 441 kts | 334° |
| 2026-05-07 20:14 | 27.66840 | -88.44522 | 38016 ft | 441 kts | 333° |
| 2026-05-07 20:14 | 27.72599 | -88.46792 | 38014 ft | 441 kts | 333° |
| 2026-05-07 20:15 | 27.78400 | -88.49080 | 38014 ft | 441 kts | 333° |
| 2026-05-07 20:15 | 27.84201 | -88.51372 | 38009 ft | 441 kts | 333° |
| 2026-05-07 20:16 | 27.90003 | -88.53666 | 38013 ft | 441 kts | 333° |
| 2026-05-07 20:16 | 27.95765 | -88.55947 | 38015 ft | 441 kts | 333° |
| 2026-05-07 20:17 | 28.01569 | -88.58248 | 38009 ft | 442 kts | 333° |
| 2026-05-07 20:17 | 28.07377 | -88.60552 | 38010 ft | 442 kts | 333° |
| 2026-05-07 20:18 | 28.13185 | -88.62860 | 38009 ft | 442 kts | 333° |
| 2026-05-07 20:18 | 28.18984 | -88.65165 | 38016 ft | 442 kts | 333° |
| 2026-05-07 20:19 | 28.24750 | -88.67442 | 38019 ft | 442 kts | 333° |
| 2026-05-07 20:19 | 28.30558 | -88.69722 | 38005 ft | 441 kts | 333° |
| 2026-05-07 20:20 | 28.36368 | -88.72005 | 38015 ft | 442 kts | 333° |
| 2026-05-07 20:20 | 28.42184 | -88.74294 | 38006 ft | 441 kts | 333° |
| 2026-05-07 20:21 | 28.47958 | -88.76569 | 38011 ft | 441 kts | 333° |
| 2026-05-07 20:21 | 28.53762 | -88.78858 | 38009 ft | 441 kts | 333° |
| 2026-05-07 20:22 | 28.59575 | -88.81154 | 38007 ft | 441 kts | 333° |
| 2026-05-07 20:22 | 28.65375 | -88.83447 | 38006 ft | 441 kts | 333° |
| 2026-05-07 20:23 | 28.71177 | -88.85744 | 38006 ft | 441 kts | 333° |
| 2026-05-07 20:23 | 28.76977 | -88.88042 | 38005 ft | 441 kts | 332° |
| 2026-05-07 20:24 | 28.82749 | -88.90332 | 38005 ft | 441 kts | 332° |
| 2026-05-07 20:24 | 28.88560 | -88.92640 | 38003 ft | 441 kts | 332° |
| 2026-05-07 20:25 | 28.94356 | -88.94945 | 37998 ft | 441 kts | 332° |
| 2026-05-07 20:25 | 29.00114 | -88.97238 | 37999 ft | 441 kts | 332° |
| 2026-05-07 20:26 | 29.05913 | -88.99550 | 38000 ft | 441 kts | 332° |
| 2026-05-07 20:26 | 29.11709 | -89.01863 | 38000 ft | 441 kts | 332° |
| 2026-05-07 20:27 | 29.17506 | -89.04179 | 37994 ft | 441 kts | 332° |
| 2026-05-07 20:27 | 29.23301 | -89.06497 | 38007 ft | 440 kts | 332° |
| 2026-05-07 20:28 | 29.29052 | -89.08801 | 37995 ft | 440 kts | 332° |
| 2026-05-07 20:28 | 29.34836 | -89.11120 | 38002 ft | 440 kts | 332° |
| 2026-05-07 20:29 | 29.40612 | -89.13439 | 37991 ft | 440 kts | 332° |
| 2026-05-07 20:29 | 29.46396 | -89.15765 | 37995 ft | 440 kts | 331° |
| 2026-05-07 20:30 | 29.52171 | -89.18089 | 38000 ft | 439 kts | 331° |
| 2026-05-07 20:30 | 29.57947 | -89.20417 | 38000 ft | 439 kts | 331° |
| 2026-05-07 20:31 | 29.63720 | -89.22746 | 38003 ft | 439 kts | 331° |
| 2026-05-07 20:31 | 29.69494 | -89.25078 | 38006 ft | 439 kts | 331° |
| 2026-05-07 20:32 | 29.75237 | -89.27401 | 38002 ft | 440 kts | 331° |
| 2026-05-07 20:32 | 29.81012 | -89.29739 | 38007 ft | 440 kts | 330° |
| 2026-05-07 20:33 | 29.86790 | -89.32082 | 38010 ft | 440 kts | 330° |
| 2026-05-07 20:33 | 29.92570 | -89.34428 | 38005 ft | 440 kts | 330° |
| 2026-05-07 20:34 | 29.98312 | -89.36761 | 38009 ft | 440 kts | 330° |
| 2026-05-07 20:34 | 30.04098 | -89.39104 | 37997 ft | 442 kts | 333° |
| 2026-05-07 20:34 | 30.07184 | -89.39791 | 37994 ft | 460 kts | 347° |
| 2026-05-07 20:35 | 30.10443 | -89.39569 | 37999 ft | 481 kts | 2° |
| 2026-05-07 20:35 | 30.13691 | -89.38388 | 38006 ft | 498 kts | 16° |
| 2026-05-07 20:35 | 30.16876 | -89.36766 | 37992 ft | 501 kts | 14° |
| 2026-05-07 20:36 | 30.23277 | -89.33545 | 38001 ft | 503 kts | 15° |
| 2026-05-07 20:36 | 30.29684 | -89.30278 | 38003 ft | 504 kts | 15° |
| 2026-05-07 20:37 | 30.36104 | -89.26997 | 38002 ft | 504 kts | 15° |
| 2026-05-07 20:37 | 30.42528 | -89.23710 | 37994 ft | 505 kts | 15° |
| 2026-05-07 20:38 | 30.48947 | -89.20420 | 37993 ft | 505 kts | 15° |
| 2026-05-07 20:38 | 30.55377 | -89.17119 | 37997 ft | 505 kts | 15° |
| 2026-05-07 20:39 | 30.61810 | -89.13812 | 37998 ft | 506 kts | 14° |
| 2026-05-07 20:39 | 30.68246 | -89.10499 | 37999 ft | 506 kts | 14° |
| 2026-05-07 20:40 | 30.74679 | -89.07182 | 38002 ft | 506 kts | 14° |
| 2026-05-07 20:40 | 30.81118 | -89.03858 | 38009 ft | 507 kts | 14° |
| 2026-05-07 20:41 | 30.87558 | -89.00528 | 38011 ft | 507 kts | 14° |
| 2026-05-07 20:41 | 30.94008 | -88.97189 | 38012 ft | 507 kts | 14° |
| 2026-05-07 20:42 | 31.00513 | -88.94173 | 37985 ft | 487 kts | 360° |
| 2026-05-07 20:42 | 31.03808 | -88.93673 | 38038 ft | 476 kts | 354° |
| 2026-05-07 20:42 | 31.07109 | -88.93278 | 37999 ft | 478 kts | 354° |
| 2026-05-07 20:43 | 31.13681 | -88.92582 | 38014 ft | 477 kts | 353° |
| 2026-05-07 20:43 | 31.20333 | -88.91932 | 38031 ft | 477 kts | 353° |
| 2026-05-07 20:44 | 31.26905 | -88.91296 | 38023 ft | 477 kts | 353° |
| 2026-05-07 20:44 | 31.33562 | -88.90651 | 38031 ft | 477 kts | 353° |
| 2026-05-07 20:45 | 31.40124 | -88.90015 | 38024 ft | 476 kts | 352° |
| 2026-05-07 20:45 | 31.46727 | -88.89373 | 38031 ft | 476 kts | 352° |
| 2026-05-07 20:46 | 31.53327 | -88.88731 | 38036 ft | 475 kts | 352° |
| 2026-05-07 20:46 | 31.59909 | -88.88090 | 38038 ft | 475 kts | 352° |
| 2026-05-07 20:47 | 31.66495 | -88.87447 | 38042 ft | 474 kts | 352° |
| 2026-05-07 20:47 | 31.73067 | -88.86805 | 38045 ft | 473 kts | 352° |
| 2026-05-07 20:48 | 31.79631 | -88.86163 | 38040 ft | 473 kts | 352° |
| 2026-05-07 20:48 | 31.86186 | -88.85521 | 38033 ft | 472 kts | 352° |
| 2026-05-07 20:49 | 31.92728 | -88.84879 | 38047 ft | 472 kts | 352° |
| 2026-05-07 20:49 | 31.99269 | -88.84236 | 38044 ft | 471 kts | 352° |
| 2026-05-07 20:50 | 32.05799 | -88.83594 | 38048 ft | 471 kts | 352° |
| 2026-05-07 20:50 | 32.11229 | -88.83059 | 38048 ft | 471 kts | 352° |
| 2026-05-07 20:51 | 32.17757 | -88.82414 | 38050 ft | 471 kts | 351° |
| 2026-05-07 20:51 | 32.24284 | -88.81770 | 38052 ft | 470 kts | 351° |
| 2026-05-07 20:52 | 32.30810 | -88.81124 | 38045 ft | 470 kts | 351° |
| 2026-05-07 20:52 | 32.37325 | -88.80501 | 38050 ft | 466 kts | 349° |
| 2026-05-07 20:53 | 32.43789 | -88.80168 | 38043 ft | 465 kts | 349° |
| 2026-05-07 20:53 | 32.50257 | -88.79806 | 38048 ft | 465 kts | 349° |
| 2026-05-07 20:54 | 32.56724 | -88.79440 | 38043 ft | 465 kts | 349° |
| 2026-05-07 20:54 | 32.63187 | -88.79074 | 38058 ft | 465 kts | 349° |
| 2026-05-07 20:55 | 32.69663 | -88.78707 | 38068 ft | 466 kts | 349° |
| 2026-05-07 20:55 | 32.76139 | -88.78339 | 38073 ft | 465 kts | 349° |
| 2026-05-07 20:56 | 32.82614 | -88.77970 | 38071 ft | 466 kts | 349° |
| 2026-05-07 20:56 | 32.89096 | -88.77601 | 38075 ft | 466 kts | 349° |
| 2026-05-07 20:57 | 32.95580 | -88.77231 | 38052 ft | 466 kts | 349° |
| 2026-05-07 20:57 | 33.02024 | -88.76863 | 38050 ft | 467 kts | 349° |
| 2026-05-07 20:58 | 33.08527 | -88.76490 | 38047 ft | 468 kts | 349° |
| 2026-05-07 20:58 | 33.15029 | -88.76118 | 38053 ft | 468 kts | 349° |
| 2026-05-07 20:59 | 33.21523 | -88.75745 | 38046 ft | 467 kts | 348° |
| 2026-05-07 20:59 | 33.28017 | -88.75372 | 38043 ft | 467 kts | 348° |
| 2026-05-07 21:00 | 33.34501 | -88.74998 | 38041 ft | 466 kts | 348° |
| 2026-05-07 21:00 | 33.40972 | -88.74625 | 38038 ft | 465 kts | 348° |
| 2026-05-07 21:01 | 33.47439 | -88.74252 | 38044 ft | 465 kts | 348° |
| 2026-05-07 21:01 | 33.53901 | -88.73878 | 38043 ft | 465 kts | 348° |
| 2026-05-07 21:02 | 33.60328 | -88.73506 | 38046 ft | 465 kts | 348° |
| 2026-05-07 21:02 | 33.66794 | -88.73130 | 38041 ft | 466 kts | 348° |
| 2026-05-07 21:03 | 33.73266 | -88.72754 | 38039 ft | 466 kts | 348° |
| 2026-05-07 21:03 | 33.79744 | -88.72377 | 38053 ft | 466 kts | 348° |
| 2026-05-07 21:04 | 33.86213 | -88.72000 | 38049 ft | 466 kts | 348° |
| 2026-05-07 21:04 | 33.92703 | -88.71622 | 38051 ft | 467 kts | 348° |
| 2026-05-07 21:05 | 33.99194 | -88.71242 | 38056 ft | 467 kts | 348° |
| 2026-05-07 21:05 | 34.05681 | -88.70862 | 38055 ft | 466 kts | 348° |
| 2026-05-07 21:06 | 34.12158 | -88.70482 | 38052 ft | 465 kts | 348° |
| 2026-05-07 21:06 | 34.18618 | -88.70103 | 38050 ft | 465 kts | 348° |
| 2026-05-07 21:07 | 34.25071 | -88.69724 | 38052 ft | 463 kts | 348° |
| 2026-05-07 21:07 | 34.31505 | -88.69345 | 38055 ft | 463 kts | 347° |
| 2026-05-07 21:08 | 34.37931 | -88.68966 | 38053 ft | 462 kts | 347° |
| 2026-05-07 21:08 | 34.44337 | -88.68587 | 38052 ft | 461 kts | 347° |
| 2026-05-07 21:09 | 34.50740 | -88.68208 | 38054 ft | 460 kts | 347° |
| 2026-05-07 21:09 | 34.57127 | -88.67830 | 38055 ft | 459 kts | 347° |
| 2026-05-07 21:10 | 34.63506 | -88.67451 | 38061 ft | 459 kts | 347° |
| 2026-05-07 21:10 | 34.69884 | -88.67073 | 38038 ft | 459 kts | 347° |
| 2026-05-07 21:10 | 34.73077 | -88.66882 | 37764 ft | 458 kts | 347° |
| 2026-05-07 21:11 | 34.76247 | -88.66693 | 37104 ft | 456 kts | 346° |
| 2026-05-07 21:11 | 34.79448 | -88.66505 | 36105 ft | 465 kts | 347° |
| 2026-05-07 21:11 | 34.86046 | -88.64487 | 34626 ft | 523 kts | 15° |
| 2026-05-07 21:12 | 34.89111 | -88.61948 | 34117 ft | 544 kts | 31° |
| 2026-05-07 21:12 | 34.91941 | -88.58856 | 33392 ft | 546 kts | 31° |
| 2026-05-07 21:12 | 34.94809 | -88.55803 | 32480 ft | 550 kts | 31° |
| 2026-05-07 21:12 | 34.97702 | -88.52725 | 31642 ft | 554 kts | 31° |
| 2026-05-07 21:13 | 35.00604 | -88.49631 | 30903 ft | 554 kts | 31° |
| 2026-05-07 21:13 | 35.03502 | -88.46537 | 30247 ft | 553 kts | 30° |
| 2026-05-07 21:13 | 35.06391 | -88.43450 | 29546 ft | 550 kts | 31° |
| 2026-05-07 21:13 | 35.09261 | -88.40380 | 28827 ft | 548 kts | 31° |
| 2026-05-07 21:14 | 35.12072 | -88.37371 | 28299 ft | 541 kts | 31° |
| 2026-05-07 21:14 | 35.14929 | -88.34310 | 27685 ft | 536 kts | 31° |
| 2026-05-07 21:14 | 35.17686 | -88.31354 | 27093 ft | 532 kts | 31° |
| 2026-05-07 21:14 | 35.20457 | -88.28379 | 26508 ft | 528 kts | 32° |
| 2026-05-07 21:15 | 35.23209 | -88.25422 | 25923 ft | 524 kts | 32° |
| 2026-05-07 21:15 | 35.25937 | -88.22488 | 25345 ft | 520 kts | 32° |
| 2026-05-07 21:15 | 35.28643 | -88.19576 | 24773 ft | 516 kts | 33° |
| 2026-05-07 21:15 | 35.31298 | -88.16716 | 24213 ft | 512 kts | 33° |
| 2026-05-07 21:16 | 35.33960 | -88.13846 | 23657 ft | 508 kts | 33° |
| 2026-05-07 21:16 | 35.36607 | -88.10988 | 22892 ft | 506 kts | 34° |
| 2026-05-07 21:16 | 35.39231 | -88.08154 | 22325 ft | 499 kts | 34° |
| 2026-05-07 21:16 | 35.41815 | -88.05360 | 21826 ft | 491 kts | 34° |
| 2026-05-07 21:17 | 35.44333 | -88.02633 | 21306 ft | 475 kts | 34° |
| 2026-05-07 21:17 | 35.46775 | -87.99989 | 20794 ft | 461 kts | 34° |
| 2026-05-07 21:17 | 35.49145 | -87.97420 | 20286 ft | 449 kts | 34° |
| 2026-05-07 21:17 | 35.51455 | -87.94913 | 19811 ft | 438 kts | 34° |
| 2026-05-07 21:18 | 35.53711 | -87.92464 | 19334 ft | 427 kts | 34° |
| 2026-05-07 21:18 | 35.55910 | -87.90074 | 18880 ft | 418 kts | 34° |
| 2026-05-07 21:18 | 35.58062 | -87.87735 | 18439 ft | 409 kts | 34° |
| 2026-05-07 21:18 | 35.60219 | -87.85390 | 17900 ft | 417 kts | 34° |
| 2026-05-07 21:19 | 35.62401 | -87.83012 | 17443 ft | 420 kts | 35° |
| 2026-05-07 21:19 | 35.64583 | -87.80633 | 16975 ft | 419 kts | 35° |
| 2026-05-07 21:19 | 35.66757 | -87.78262 | 16534 ft | 415 kts | 35° |
| 2026-05-07 21:19 | 35.68908 | -87.75913 | 16071 ft | 412 kts | 35° |
| 2026-05-07 21:20 | 35.71028 | -87.73598 | 15882 ft | 402 kts | 35° |
| 2026-05-07 21:20 | 35.73095 | -87.71338 | 15674 ft | 393 kts | 35° |
| 2026-05-07 21:20 | 35.75102 | -87.69094 | 15409 ft | 389 kts | 40° |
| 2026-05-07 21:20 | 35.76641 | -87.66331 | 15009 ft | 393 kts | 61° |
| 2026-05-07 21:21 | 35.77652 | -87.63251 | 14677 ft | 384 kts | 64° |
| 2026-05-07 21:21 | 35.78622 | -87.60215 | 14319 ft | 377 kts | 64° |
| 2026-05-07 21:21 | 35.79549 | -87.57270 | 13950 ft | 371 kts | 65° |
| 2026-05-07 21:21 | 35.80470 | -87.54313 | 13668 ft | 366 kts | 65° |
| 2026-05-07 21:22 | 35.81364 | -87.51437 | 13526 ft | 352 kts | 64° |
| 2026-05-07 21:22 | 35.82220 | -87.48675 | 13344 ft | 340 kts | 64° |
| 2026-05-07 21:22 | 35.83173 | -87.46023 | 12659 ft | 341 kts | 59° |
| 2026-05-07 21:22 | 35.84232 | -87.43360 | 11866 ft | 349 kts | 59° |
| 2026-05-07 21:23 | 35.85287 | -87.40661 | 11199 ft | 348 kts | 60° |
| 2026-05-07 21:23 | 35.86321 | -87.37989 | 10716 ft | 342 kts | 60° |
| 2026-05-07 21:23 | 35.87249 | -87.35334 | 10386 ft | 333 kts | 72° |
| 2026-05-07 21:23 | 35.87426 | -87.32570 | 10126 ft | 325 kts | 96° |
| 2026-05-07 21:24 | 35.87004 | -87.29884 | 9866 ft | 314 kts | 101° |
| 2026-05-07 21:24 | 35.86583 | -87.27266 | 9572 ft | 310 kts | 100° |
| 2026-05-07 21:24 | 35.86165 | -87.24670 | 9229 ft | 306 kts | 101° |
| 2026-05-07 21:24 | 35.85748 | -87.22112 | 8897 ft | 303 kts | 101° |
| 2026-05-07 21:25 | 35.85334 | -87.19577 | 8548 ft | 299 kts | 101° |
| 2026-05-07 21:25 | 35.84925 | -87.17075 | 8230 ft | 296 kts | 101° |
| 2026-05-07 21:25 | 35.84518 | -87.14598 | 7903 ft | 293 kts | 101° |
| 2026-05-07 21:25 | 35.84114 | -87.12139 | 7579 ft | 291 kts | 101° |
| 2026-05-07 21:26 | 35.83716 | -87.09719 | 7269 ft | 287 kts | 101° |
| 2026-05-07 21:26 | 35.83321 | -87.07319 | 6956 ft | 284 kts | 101° |
| 2026-05-07 21:26 | 35.82969 | -87.04972 | 6663 ft | 280 kts | 98° |
| 2026-05-07 21:26 | 35.82654 | -87.02620 | 6471 ft | 278 kts | 98° |
| 2026-05-07 21:27 | 35.82338 | -87.00280 | 6316 ft | 275 kts | 99° |
| 2026-05-07 21:27 | 35.82024 | -86.97960 | 6152 ft | 271 kts | 98° |
| 2026-05-07 21:27 | 35.81720 | -86.95729 | 6002 ft | 256 kts | 98° |
| 2026-05-07 21:27 | 35.81433 | -86.93624 | 5848 ft | 243 kts | 98° |
| 2026-05-07 21:28 | 35.81157 | -86.91591 | 5719 ft | 239 kts | 98° |
| 2026-05-07 21:28 | 35.80881 | -86.89570 | 5530 ft | 238 kts | 98° |
| 2026-05-07 21:28 | 35.80608 | -86.87566 | 5393 ft | 237 kts | 98° |
| 2026-05-07 21:28 | 35.80335 | -86.85569 | 5240 ft | 237 kts | 98° |
| 2026-05-07 21:29 | 35.80143 | -86.83563 | 5081 ft | 234 kts | 83° |
| 2026-05-07 21:29 | 35.80648 | -86.81756 | 4995 ft | 225 kts | 51° |
| 2026-05-07 21:29 | 35.81807 | -86.80544 | 5023 ft | 219 kts | 23° |
| 2026-05-07 21:29 | 35.83239 | -86.79863 | 5049 ft | 221 kts | 17° |
| 2026-05-07 21:30 | 35.84702 | -86.79263 | 5043 ft | 222 kts | 16° |
| 2026-05-07 21:30 | 35.86170 | -86.78678 | 5018 ft | 221 kts | 15° |
| 2026-05-07 21:30 | 35.87628 | -86.78103 | 4977 ft | 220 kts | 15° |
| 2026-05-07 21:30 | 35.89087 | -86.77531 | 5020 ft | 220 kts | 16° |
| 2026-05-07 21:31 | 35.90548 | -86.76956 | 4952 ft | 220 kts | 15° |
| 2026-05-07 21:31 | 35.91999 | -86.76389 | 4710 ft | 218 kts | 15° |
| 2026-05-07 21:31 | 35.93451 | -86.75821 | 4415 ft | 219 kts | 16° |
| 2026-05-07 21:31 | 35.94911 | -86.75253 | 4150 ft | 221 kts | 15° |
| 2026-05-07 21:32 | 35.96391 | -86.74668 | 3796 ft | 226 kts | 16° |
| 2026-05-07 21:32 | 35.97896 | -86.74084 | 3520 ft | 225 kts | 15° |
| 2026-05-07 21:32 | 35.99375 | -86.73506 | 3186 ft | 219 kts | 15° |
| 2026-05-07 21:32 | 36.00775 | -86.72956 | 2908 ft | 201 kts | 16° |
| 2026-05-07 21:33 | 36.02062 | -86.72454 | 2667 ft | 192 kts | 16° |
| 2026-05-07 21:33 | 36.03328 | -86.71962 | 2361 ft | 189 kts | 15° |
| 2026-05-07 21:33 | 36.04544 | -86.71491 | 2152 ft | 178 kts | 16° |
| 2026-05-07 21:33 | 36.05652 | -86.71046 | 1908 ft | 160 kts | 16° |
| 2026-05-07 21:34 | 36.06675 | -86.70643 | 1706 ft | 147 kts | 15° |
| 2026-05-07 21:34 | 36.07630 | -86.70272 | 1544 ft | 143 kts | 16° |
| 2026-05-07 21:34 | 36.08578 | -86.69899 | 1320 ft | 143 kts | 15° |
| 2026-05-07 21:34 | 36.09521 | -86.69528 | 1108 ft | 141 kts | 15° |
| 2026-05-07 21:35 | 36.10461 | -86.69159 | 897 ft | 143 kts | 15° |
| 2026-05-07 21:35 | 36.11405 | -86.68789 | 698 ft | 142 kts | 15° |
| 2026-05-07 21:35 | 36.12334 | -86.68429 | 578 ft | 130 kts | 18° |
| 2026-05-07 21:35 | 36.12968 | -86.68179 | 581 ft | 62 kts | 18° |
| 2026-05-07 21:36 | 36.13226 | -86.68076 | 582 ft | 20 kts | 20° |
| 2026-05-07 21:36 | 36.13315 | -86.67929 | 580 ft | 22 kts | 61° |
| 2026-05-07 21:36 | 36.13312 | -86.67860 | 577 ft | 6 kts | 173° |
| 2026-05-07 21:36 | 36.13260 | -86.67877 | 575 ft | 8 kts | 197° |
| 2026-05-07 21:37 | 36.13198 | -86.67902 | 578 ft | 10 kts | 197° |
| 2026-05-07 21:37 | 36.13125 | -86.67928 | 578 ft | 12 kts | 188° |
| 2026-05-07 21:37 | 36.13058 | -86.67877 | 576 ft | 13 kts | 133° |
| 2026-05-07 21:37 | 36.12979 | -86.67774 | 579 ft | 22 kts | 134° |
| 2026-05-07 21:38 | 36.12868 | -86.67630 | 576 ft | 24 kts | 134° |
| 2026-05-07 21:38 | 36.12767 | -86.67497 | 576 ft | 18 kts | 133° |
| 2026-05-07 21:38 | 36.12680 | -86.67383 | 579 ft | 19 kts | 133° |
| 2026-05-07 21:38 | 36.12587 | -86.67263 | 579 ft | 20 kts | 134° |
| 2026-05-07 21:39 | 36.12486 | -86.67130 | 578 ft | 19 kts | 134° |
| 2026-05-07 21:39 | 36.12421 | -86.67034 | 583 ft | 11 kts | 103° |
| 2026-05-07 21:39 | 36.12476 | -86.66961 | 576 ft | 14 kts | 29° |
| 2026-05-07 21:39 | 36.12565 | -86.66898 | 578 ft | 17 kts | 31° |
| 2026-05-07 21:40 | 36.12641 | -86.66900 | 573 ft | 9 kts | 2° |
| 2026-05-07 21:40 | 36.12689 | -86.66864 | 575 ft | 6 kts | 41° |
| 2026-05-07 21:40 | 36.12718 | -86.66831 | 573 ft | 5 kts | 41° |
| 2026-05-07 21:40 | 36.12741 | -86.66824 | 575 ft | 2 kts | 339° |
| 2026-05-07 21:41 | 36.12748 | -86.66830 | 574 ft | 2 kts | 318° |
| 2026-05-07 21:41 | 36.12760 | -86.66845 | 573 ft | 2 kts | 312° |
| 2026-05-07 21:41 | 36.12765 | -86.66853 | 573 ft | 0 kts | 311° |
| 2026-05-07 21:42 | 36.12769 | -86.66858 | 571 ft | 0 kts | 311° |